Time;durP1;ratioP1;P1;durP2;ratioP2;P2;SDS_P1;SDS_P2;PMS_P1;PMS_P2;Temp;Humidity;BMP_temperature;BMP_pressure;BME280_temperature;BME280_humidity;BME280_pressure;Samples;Min_cycle;Max_cycle;Signal;HPM_P1;HPM_P2
2022/06/27 00:00:31;;;;;;;3.22;1.50;;;26.80;49.90;;;;;;4917368;29;20122;-47
2022/06/27 00:02:57;;;;;;;3.97;1.63;;;26.80;50.60;;;;;;4917899;29;20024;-47
2022/06/27 00:05:23;;;;;;;2.33;1.52;;;26.80;49.90;;;;;;4916718;29;20096;-47
2022/06/27 00:07:48;;;;;;;2.85;1.90;;;26.80;49.90;;;;;;4917163;29;20726;-46
2022/06/27 00:10:14;;;;;;;3.40;1.90;;;26.70;49.80;;;;;;4917333;29;20023;-47
2022/06/27 00:12:40;;;;;;;2.40;1.60;;;26.70;49.80;;;;;;4916992;29;20039;-47
2022/06/27 00:15:08;;;;;;;2.20;1.25;;;26.80;49.80;;;;;;4917453;29;20020;-47
2022/06/27 00:17:34;;;;;;;2.28;1.48;;;26.80;49.80;;;;;;4916981;29;20062;-47
2022/06/27 00:20:00;;;;;;;2.85;1.70;;;26.80;49.70;;;;;;4917695;29;20678;-47
2022/06/27 00:22:27;;;;;;;2.33;1.50;;;26.80;49.70;;;;;;4917180;29;20028;-47
2022/06/27 00:24:53;;;;;;;3.13;1.90;;;26.80;49.60;;;;;;4917228;29;20028;-48
2022/06/27 00:27:19;;;;;;;3.08;1.80;;;26.80;49.60;;;;;;4918623;29;20032;-47
2022/06/27 00:29:44;;;;;;;2.58;1.65;;;26.80;49.60;;;;;;4917059;29;20565;-47
2022/06/27 00:32:10;;;;;;;2.65;1.73;;;26.80;49.70;;;;;;4918144;29;20042;-46
2022/06/27 00:34:36;;;;;;;3.00;1.80;;;26.80;49.60;;;;;;4918430;29;20083;-47
2022/06/27 00:37:03;;;;;;;2.40;1.52;;;26.80;49.70;;;;;;4916936;29;20019;-47
2022/06/27 00:39:29;;;;;;;3.03;1.63;;;26.80;49.70;;;;;;4916935;29;20028;-46
2022/06/27 00:41:55;;;;;;;3.00;1.63;;;26.80;49.70;;;;;;4916935;29;20032;-47
2022/06/27 00:44:35;;;;;;;2.42;1.55;;;26.80;49.70;;;;;;4917717;29;20038;-47
2022/06/27 00:47:03;;;;;;;2.58;1.50;;;26.80;49.70;;;;;;4916501;29;20027;-47
2022/06/27 00:49:29;;;;;;;2.42;1.60;;;26.80;49.70;;;;;;4917745;29;20476;-47
2022/06/27 00:51:55;;;;;;;2.80;1.58;;;26.80;49.70;;;;;;4923318;29;20099;-47
2022/06/27 00:54:22;;;;;;;2.05;1.20;;;26.80;49.70;;;;;;4916381;29;20075;-47
2022/06/27 00:56:49;;;;;;;2.65;1.80;;;26.80;49.70;;;;;;4916118;29;20535;-47
2022/06/27 00:59:14;;;;;;;2.88;1.80;;;26.80;49.70;;;;;;4917819;29;20095;-46
2022/06/27 01:01:40;;;;;;;2.50;1.58;;;26.80;49.70;;;;;;4915681;29;20035;-47
2022/06/27 01:04:07;;;;;;;2.47;1.70;;;26.80;49.70;;;;;;4916897;29;20036;-46
2022/06/27 01:06:33;;;;;;;2.78;1.67;;;26.80;49.70;;;;;;4916939;29;20605;-47
2022/06/27 01:08:58;;;;;;;3.03;1.50;;;26.80;49.60;;;;;;4916389;29;20709;-47
2022/06/27 01:11:24;;;;;;;2.72;1.63;;;26.80;49.60;;;;;;4918939;29;20023;-47
2022/06/27 01:13:50;;;;;;;2.55;1.42;;;26.80;49.60;;;;;;4920077;29;20117;-47
2022/06/27 01:16:16;;;;;;;2.88;1.40;;;26.80;49.60;;;;;;4920372;29;20028;-47
2022/06/27 01:18:42;;;;;;;2.45;1.55;;;26.80;49.50;;;;;;4920215;29;20046;-47
2022/06/27 01:21:19;;;;;;;2.30;1.50;;;26.80;49.50;;;;;;4920744;29;20511;-47
2022/06/27 01:23:45;;;;;;;3.17;1.60;;;26.80;49.50;;;;;;4920592;29;20042;-47
2022/06/27 01:26:11;;;;;;;3.53;1.55;;;26.70;49.50;;;;;;4920394;29;20032;-46
2022/06/27 01:28:37;;;;;;;2.53;1.67;;;26.80;49.60;;;;;;4919855;29;20028;-47
2022/06/27 01:31:02;;;;;;;2.78;1.73;;;26.80;49.50;;;;;;4920845;29;20039;-47
2022/06/27 01:33:28;;;;;;;2.78;1.60;;;26.80;49.50;;;;;;4919435;29;20028;-47
2022/06/27 01:36:41;;;;;;;2.40;1.50;;;26.80;49.50;;;;;;4920147;29;20110;-47
2022/06/27 01:38:40;;;;;;;2.67;1.48;;;26.80;49.60;;;;;;4918571;29;20032;-47
2022/06/27 01:41:06;;;;;;;2.40;1.55;;;26.80;49.60;;;;;;4919558;29;20038;-47
2022/06/27 01:43:32;;;;;;;2.08;1.27;;;26.80;49.60;;;;;;4919441;29;20039;-47
2022/06/27 01:45:58;;;;;;;3.13;1.73;;;26.80;49.50;;;;;;4918674;29;20023;-47
2022/06/27 01:48:24;;;;;;;2.03;1.40;;;26.80;49.50;;;;;;4919568;29;20261;-47
2022/06/27 01:50:53;;;;;;;2.63;1.63;;;26.80;49.50;;;;;;4919520;29;20654;-47
2022/06/27 01:53:20;;;;;;;2.17;1.40;;;26.80;49.50;;;;;;4919854;29;20439;-46
2022/06/27 01:55:46;;;;;;;2.55;1.40;;;26.70;49.50;;;;;;4919455;29;20202;-48
2022/06/27 01:58:12;;;;;;;3.15;1.60;;;26.80;49.60;;;;;;4919818;29;20080;-47
2022/06/27 02:00:38;;;;;;;2.35;1.40;;;26.80;49.50;;;;;;4919722;29;20028;-47
2022/06/27 02:03:03;;;;;;;3.22;1.50;;;26.80;49.50;;;;;;4919856;29;20038;-47
2022/06/27 02:05:30;;;;;;;2.55;1.65;;;26.80;49.50;;;;;;4921307;29;20119;-47
2022/06/27 02:07:57;;;;;;;2.13;1.42;;;26.80;49.50;;;;;;4919567;29;20043;-47
2022/06/27 02:10:23;;;;;;;2.40;1.30;;;26.80;49.50;;;;;;4919277;29;20023;-47
2022/06/27 02:12:49;;;;;;;2.30;1.38;;;26.70;49.40;;;;;;4919405;29;20032;-47
2022/06/27 02:15:15;;;;;;;2.20;1.20;;;26.80;49.40;;;;;;4920049;29;20551;-47
2022/06/27 02:17:41;;;;;;;2.15;1.25;;;26.80;49.40;;;;;;4919060;29;20034;-46
2022/06/27 02:20:07;;;;;;;2.42;1.30;;;26.80;49.40;;;;;;4920573;29;20024;-47
2022/06/27 02:22:33;;;;;;;2.53;1.52;;;26.80;49.40;;;;;;4920172;29;20083;-46
2022/06/27 02:24:59;;;;;;;2.78;1.65;;;26.80;49.40;;;;;;4919186;29;20040;-47
2022/06/27 02:27:29;;;;;;;2.10;1.20;;;26.80;49.40;;;;;;4918861;29;20040;-47
2022/06/27 02:29:54;;;;;;;2.08;1.23;;;26.80;49.40;;;;;;4919513;29;20027;-47
2022/06/27 02:32:20;;;;;;;2.47;1.52;;;26.80;49.40;;;;;;4918920;29;20444;-51
2022/06/27 02:34:49;;;;;;;2.35;1.60;;;26.80;49.40;;;;;;4919258;29;20030;-46
2022/06/27 02:37:15;;;;;;;1.95;1.40;;;26.80;49.40;;;;;;4919158;29;20025;-47
2022/06/27 02:39:44;;;;;;;2.35;1.33;;;26.80;49.50;;;;;;4918578;29;20024;-46
2022/06/27 02:42:11;;;;;;;2.17;1.40;;;26.80;49.50;;;;;;4918995;29;20035;-47
2022/06/27 02:44:39;;;;;;;2.35;1.60;;;26.70;49.40;;;;;;4918925;29;20063;-47
2022/06/27 02:47:05;;;;;;;2.58;1.50;;;26.80;49.40;;;;;;4918497;29;20051;-47
2022/06/27 02:49:31;;;;;;;2.47;1.30;;;26.80;49.40;;;;;;4919706;29;20596;-47
2022/06/27 02:52:03;;;;;;;2.65;1.70;;;26.80;50.10;;;;;;4919165;29;20130;-47
2022/06/27 02:54:41;;;;;;;2.08;1.40;;;26.80;49.40;;;;;;4919260;29;20564;-47
2022/06/27 02:57:27;;;;;;;1.73;1.23;;;26.80;49.40;;;;;;4918127;29;20550;-48
2022/06/27 02:59:55;;;;;;;2.20;1.30;;;26.80;49.40;;;;;;4919023;29;20126;-47
2022/06/27 03:02:23;;;;;;;1.92;1.50;;;26.80;49.40;;;;;;4919026;29;20620;-47
2022/06/27 03:04:49;;;;;;;1.95;1.23;;;26.80;49.40;;;;;;4919229;29;20055;-47
2022/06/27 03:07:14;;;;;;;3.08;1.60;;;26.80;49.30;;;;;;4918371;29;20055;-47
2022/06/27 03:09:40;;;;;;;2.60;1.42;;;26.80;49.30;;;;;;4918404;29;20073;-47
2022/06/27 03:12:06;;;;;;;2.08;1.30;;;26.80;49.20;;;;;;4918528;29;20023;-47
2022/06/27 03:14:32;;;;;;;3.65;1.48;;;26.80;49.30;;;;;;4918820;29;20369;-47
2022/06/27 03:16:57;;;;;;;2.40;1.58;;;26.80;49.30;;;;;;4918317;29;20488;-46
2022/06/27 03:19:23;;;;;;;2.63;1.35;;;26.80;49.30;;;;;;4918064;29;20035;-47
2022/06/27 03:21:49;;;;;;;2.38;1.50;;;26.80;49.30;;;;;;4919430;29;20024;-47
2022/06/27 03:24:14;;;;;;;1.98;1.40;;;26.80;49.30;;;;;;4917671;29;20039;-47
2022/06/27 03:26:40;;;;;;;2.17;1.30;;;26.70;49.30;;;;;;4917512;29;20087;-47
2022/06/27 03:29:06;;;;;;;2.47;1.30;;;26.80;49.30;;;;;;4919258;29;20091;-47
2022/06/27 03:31:31;;;;;;;2.55;1.55;;;26.80;49.30;;;;;;4917449;29;20024;-47
2022/06/27 03:33:57;;;;;;;2.42;1.35;;;26.80;49.30;;;;;;4917263;29;20028;-47
2022/06/27 03:36:23;;;;;;;4.15;1.67;;;26.70;49.30;;;;;;4918658;29;20040;-46
2022/06/27 03:38:49;;;;;;;2.15;1.25;;;26.80;49.30;;;;;;4917094;29;20034;-45
2022/06/27 03:41:14;;;;;;;2.28;1.23;;;26.80;49.30;;;;;;4917932;29;20035;-47
2022/06/27 03:43:40;;;;;;;3.45;1.75;;;26.70;49.30;;;;;;4917810;29;20027;-47
2022/06/27 03:46:06;;;;;;;2.40;1.55;;;26.80;49.30;;;;;;4917085;29;20036;-47
2022/06/27 03:51:16;;;;;;;2.20;1.45;;;26.80;49.30;;;;;;4918077;29;20531;-46
2022/06/27 03:53:42;;;;;;;2.70;1.60;;;26.80;49.30;;;;;;4916675;29;20039;-47
2022/06/27 03:56:07;;;;;;;3.22;1.58;;;26.80;49.20;;;;;;4917204;29;20027;-46
2022/06/27 03:58:33;;;;;;;2.42;1.30;;;26.80;49.20;;;;;;4916778;29;20023;-47
2022/06/27 04:00:59;;;;;;;2.10;1.33;;;26.80;49.20;;;;;;4917606;29;20048;-46
2022/06/27 04:03:24;;;;;;;2.10;1.20;;;26.80;49.20;;;;;;4917285;29;20032;-47
2022/06/27 04:05:50;;;;;;;2.20;1.48;;;26.80;49.20;;;;;;4918217;29;20028;-46
2022/06/27 04:08:16;;;;;;;2.40;1.40;;;26.80;49.20;;;;;;4917399;29;20043;-47
2022/06/27 04:10:41;;;;;;;3.10;1.67;;;26.80;49.20;;;;;;4916718;29;20086;-47
2022/06/27 04:13:07;;;;;;;3.55;1.35;;;26.80;49.20;;;;;;4917182;29;20115;-47
2022/06/27 04:15:33;;;;;;;2.00;1.33;;;26.80;49.30;;;;;;4916665;29;20107;-48
2022/06/27 04:17:58;;;;;;;2.72;1.30;;;26.80;49.30;;;;;;4917069;29;20048;-47
2022/06/27 04:20:24;;;;;;;2.65;1.95;;;26.70;49.30;;;;;;4917862;29;20496;-47
2022/06/27 04:22:51;;;;;;;2.53;1.42;;;26.80;49.30;;;;;;4917570;29;20024;-47
2022/06/27 04:25:16;;;;;;;2.90;1.50;;;26.80;49.30;;;;;;4917251;29;20464;-46
2022/06/27 04:27:42;;;;;;;2.35;1.40;;;26.70;49.30;;;;;;4916324;29;20039;-48
2022/06/27 04:30:15;;;;;;;2.38;1.38;;;26.70;49.30;;;;;;4917868;29;20550;-47
2022/06/27 04:32:42;;;;;;;2.42;1.23;;;26.80;49.30;;;;;;4916296;29;20127;-47
2022/06/27 04:35:08;;;;;;;2.63;1.50;;;26.80;49.30;;;;;;4917621;29;20051;-47
2022/06/27 04:37:34;;;;;;;2.45;1.38;;;26.80;49.40;;;;;;4916430;29;20028;-47
2022/06/27 04:39:59;;;;;;;2.67;1.50;;;26.70;49.30;;;;;;4916509;29;20202;-47
2022/06/27 04:42:26;;;;;;;2.95;1.60;;;26.80;49.40;;;;;;4916903;29;20024;-47
2022/06/27 04:44:52;;;;;;;3.22;1.50;;;26.70;49.30;;;;;;4915402;29;20428;-47
2022/06/27 04:47:17;;;;;;;2.28;1.40;;;26.80;49.30;;;;;;4916383;29;20016;-47
2022/06/27 04:49:43;;;;;;;2.70;1.58;;;26.80;49.30;;;;;;4917391;29;20631;-47
2022/06/27 04:52:12;;;;;;;2.45;1.30;;;26.80;49.20;;;;;;4917311;29;20016;-47
2022/06/27 04:54:38;;;;;;;2.45;1.33;;;26.80;49.10;;;;;;4916247;29;20086;-46
2022/06/27 04:57:05;;;;;;;2.20;1.52;;;26.80;49.20;;;;;;4915786;29;20027;-47
2022/06/27 04:59:31;;;;;;;3.70;1.58;;;26.80;49.30;;;;;;4916648;29;20271;-47
2022/06/27 05:01:57;;;;;;;2.72;1.30;;;26.80;49.30;;;;;;4915142;29;20440;-46
2022/06/27 05:04:23;;;;;;;2.70;1.55;;;26.80;49.50;;;;;;4916208;29;20031;-47
2022/06/27 05:06:50;;;;;;;2.03;1.33;;;26.80;49.30;;;;;;4916936;29;20062;-47
2022/06/27 05:09:16;;;;;;;3.28;1.75;;;26.80;49.70;;;;;;4915355;29;20131;-46
2022/06/27 05:11:45;;;;;;;2.60;1.70;;;26.80;49.90;;;;;;4915516;29;20094;-47
2022/06/27 05:14:11;;;;;;;3.50;1.70;;;26.80;50.00;;;;;;4915727;29;20575;-47
2022/06/27 05:16:38;;;;;;;2.75;1.77;;;26.80;50.00;;;;;;4915755;29;20055;-47
2022/06/27 05:19:03;;;;;;;5.18;1.70;;;26.80;50.10;;;;;;4915441;29;20055;-47
2022/06/27 05:21:29;;;;;;;3.47;2.00;;;26.80;50.40;;;;;;4918390;29;20024;-46
2022/06/27 05:23:55;;;;;;;3.30;1.70;;;26.80;50.40;;;;;;4916698;29;20031;-47
2022/06/27 05:26:21;;;;;;;2.95;1.73;;;26.80;50.50;;;;;;4915675;29;20020;-47
2022/06/27 05:28:47;;;;;;;3.28;1.77;;;26.80;50.60;;;;;;4915704;29;20036;-46
2022/06/27 05:31:12;;;;;;;2.80;1.70;;;26.80;50.50;;;;;;4917774;29;20036;-47
2022/06/27 05:33:39;;;;;;;2.95;1.70;;;26.80;50.60;;;;;;4919195;29;20027;-46
2022/06/27 05:36:06;;;;;;;3.53;2.15;;;26.80;50.80;;;;;;4919951;29;20051;-46
2022/06/27 05:38:32;;;;;;;3.90;2.03;;;26.80;52.10;;;;;;4916167;29;20055;-47
2022/06/27 05:40:59;;;;;;;4.93;2.08;;;26.80;52.30;;;;;;4918183;29;20448;-47
2022/06/27 05:43:26;;;;;;;4.00;2.10;;;26.80;52.80;;;;;;4915874;29;20107;-47
2022/06/27 05:45:53;;;;;;;5.30;2.15;;;26.80;53.00;;;;;;4913990;29;20031;-47
2022/06/27 05:48:20;;;;;;;3.63;2.20;;;26.80;52.90;;;;;;4916607;29;20107;-46
2022/06/27 05:50:46;;;;;;;4.80;2.30;;;26.80;53.00;;;;;;4916358;29;20028;-44
2022/06/27 05:53:12;;;;;;;3.75;2.30;;;26.90;53.00;;;;;;4918522;29;20088;-45
2022/06/27 05:55:38;;;;;;;4.72;2.03;;;26.90;53.30;;;;;;4915690;29;20032;-47
2022/06/27 05:58:04;;;;;;;4.22;2.17;;;26.90;53.30;;;;;;4918488;29;20039;-47
2022/06/27 06:00:31;;;;;;;4.45;2.30;;;26.90;53.20;;;;;;4919280;29;20032;-48
2022/06/27 06:02:58;;;;;;;4.55;2.45;;;26.90;53.40;;;;;;4910679;29;20417;-47
2022/06/27 06:05:24;;;;;;;4.72;2.30;;;26.90;53.00;;;;;;4915451;29;20709;-46
2022/06/27 06:07:50;;;;;;;6.35;2.42;;;26.90;53.00;;;;;;4927362;29;20067;-46
2022/06/27 06:10:16;;;;;;;4.85;2.33;;;27.00;53.30;;;;;;4929639;29;20035;-46
2022/06/27 06:12:42;;;;;;;4.07;2.20;;;27.00;53.50;;;;;;4928118;29;20048;-46
2022/06/27 06:15:08;;;;;;;5.95;2.20;;;27.00;53.50;;;;;;4929444;29;20548;-46
2022/06/27 06:17:36;;;;;;;4.70;2.05;;;27.00;53.30;;;;;;4928834;29;20090;-47
2022/06/27 06:20:04;;;;;;;4.13;1.90;;;27.10;53.40;;;;;;4929119;29;20063;-45
2022/06/27 06:22:31;;;;;;;3.50;1.98;;;27.00;53.40;;;;;;4929011;29;20015;-46
2022/06/27 06:24:57;;;;;;;3.70;2.00;;;27.10;53.20;;;;;;4927089;29;20024;-46
2022/06/27 06:27:23;;;;;;;3.85;2.03;;;27.10;53.00;;;;;;4918678;29;20171;-46
2022/06/27 06:29:49;;;;;;;3.20;1.70;;;27.10;52.70;;;;;;4920044;29;20028;-46
2022/06/27 06:32:14;;;;;;;4.05;2.20;;;27.10;52.40;;;;;;4918937;29;20032;-46
2022/06/27 06:34:41;;;;;;;2.88;1.52;;;27.10;52.30;;;;;;4917816;29;20115;-45
2022/06/27 06:37:09;;;;;;;3.80;1.83;;;27.10;52.10;;;;;;4917638;29;20038;-46
2022/06/27 06:39:35;;;;;;;4.00;2.10;;;27.10;52.10;;;;;;4918486;29;20059;-46
2022/06/27 06:42:01;;;;;;;3.42;1.67;;;27.10;51.90;;;;;;4918963;29;20461;-46
2022/06/27 06:44:27;;;;;;;3.85;2.10;;;27.10;52.00;;;;;;4918997;29;20111;-47
2022/06/27 06:46:54;;;;;;;3.72;2.10;;;27.10;52.00;;;;;;4916304;29;20689;-47
2022/06/27 06:49:20;;;;;;;3.55;1.95;;;27.10;52.00;;;;;;4908304;29;20035;-47
2022/06/27 06:51:46;;;;;;;4.35;1.75;;;27.10;51.80;;;;;;4924146;29;20372;-47
2022/06/27 06:54:17;;;;;;;2.97;2.00;;;27.20;51.70;;;;;;4928700;29;20496;-47
2022/06/27 06:56:52;;;;;;;2.92;1.40;;;27.20;51.50;;;;;;4926999;29;20020;-47
2022/06/27 06:59:18;;;;;;;3.30;1.52;;;27.20;51.40;;;;;;4928455;29;20046;-46
2022/06/27 07:01:46;;;;;;;3.10;1.75;;;27.10;51.30;;;;;;4928609;29;20036;-47
2022/06/27 07:04:12;;;;;;;3.42;1.95;;;27.10;51.20;;;;;;4928664;29;20505;-46
2022/06/27 07:06:41;;;;;;;2.92;1.60;;;27.10;51.40;;;;;;4928496;29;20106;-46
2022/06/27 07:09:07;;;;;;;3.33;1.58;;;27.10;51.10;;;;;;4910550;29;20035;-47
2022/06/27 07:11:36;;;;;;;3.30;1.60;;;27.20;51.00;;;;;;4928532;29;20114;-47
2022/06/27 07:14:03;;;;;;;3.28;1.85;;;27.10;51.10;;;;;;4928346;29;20038;-47
2022/06/27 07:16:29;;;;;;;3.08;1.70;;;27.20;51.20;;;;;;4928256;29;20068;-46
2022/06/27 07:18:56;;;;;;;2.97;1.85;;;27.20;51.30;;;;;;4927745;29;20036;-47
2022/06/27 07:21:23;;;;;;;3.30;1.50;;;27.20;51.40;;;;;;4927990;29;20171;-47
2022/06/27 07:23:50;;;;;;;2.85;1.85;;;27.20;51.30;;;;;;4928348;29;20054;-47
2022/06/27 07:26:17;;;;;;;4.68;1.80;;;27.20;51.40;;;;;;4928646;29;20043;-46
2022/06/27 07:28:44;;;;;;;2.95;1.40;;;27.10;51.30;;;;;;4927520;29;20034;-46
2022/06/27 07:31:12;;;;;;;3.42;1.80;;;27.10;51.40;;;;;;4909657;29;20094;-46
2022/06/27 07:33:39;;;;;;;2.95;1.55;;;27.20;51.30;;;;;;4909117;29;20499;-47
2022/06/27 07:36:08;;;;;;;3.30;1.80;;;27.10;51.30;;;;;;4918193;29;20072;-47
2022/06/27 07:38:41;;;;;;;3.40;1.60;;;27.20;51.30;;;;;;4927500;29;20038;-47
2022/06/27 07:41:13;;;;;;;3.72;1.52;;;27.10;51.40;;;;;;4928056;29;20047;-46
2022/06/27 07:43:40;;;;;;;3.47;1.50;;;27.10;51.30;;;;;;4916209;29;20039;-47
2022/06/27 07:46:07;;;;;;;4.03;1.67;;;27.20;51.40;;;;;;4927920;29;20027;-47
2022/06/27 07:48:33;;;;;;;2.67;1.40;;;27.20;51.30;;;;;;4920189;29;20504;-47
2022/06/27 07:51:00;;;;;;;3.55;1.50;;;27.20;51.30;;;;;;4916817;29;20652;-46
2022/06/27 07:53:26;;;;;;;3.15;1.70;;;27.20;51.30;;;;;;4927682;29;20040;-46
2022/06/27 07:55:58;;;;;;;2.22;1.35;;;27.20;51.30;;;;;;4927343;29;20032;-47
2022/06/27 07:58:35;;;;;;;2.95;1.40;;;27.20;51.30;;;;;;4927720;29;20038;-46
2022/06/27 08:01:22;;;;;;;3.10;1.55;;;27.20;51.20;;;;;;4918096;29;20091;-47
2022/06/27 08:03:48;;;;;;;2.13;1.30;;;27.20;51.20;;;;;;4908495;29;20119;-46
2022/06/27 08:06:22;;;;;;;2.70;1.40;;;27.20;51.10;;;;;;4918127;29;20119;-46
2022/06/27 08:09:00;;;;;;;4.80;1.70;;;27.20;51.00;;;;;;4927117;29;20054;-48
2022/06/27 08:11:33;;;;;;;2.83;1.50;;;27.20;50.90;;;;;;4927519;29;20044;-46
2022/06/27 08:14:03;;;;;;;2.25;1.33;;;27.20;50.90;;;;;;4927289;29;20023;-47
2022/06/27 08:16:30;;;;;;;2.70;1.45;;;27.20;50.80;;;;;;4927481;29;20039;-46
2022/06/27 08:18:56;;;;;;;2.13;1.27;;;27.20;50.70;;;;;;4926797;29;20547;-46
2022/06/27 08:21:25;;;;;;;2.28;1.10;;;27.20;50.70;;;;;;4926803;29;20032;-51
2022/06/27 08:23:53;;;;;;;2.40;1.30;;;27.20;50.70;;;;;;4927049;29;20040;-46
2022/06/27 08:26:20;;;;;;;3.13;1.45;;;27.20;50.60;;;;;;4927351;29;20254;-47
2022/06/27 08:28:47;;;;;;;2.70;1.52;;;27.20;50.50;;;;;;4926478;29;20050;-47
2022/06/27 08:31:14;;;;;;;3.05;1.33;;;27.20;50.60;;;;;;4926838;29;20039;-46
2022/06/27 08:33:41;;;;;;;2.80;1.67;;;27.20;50.60;;;;;;4927188;29;20063;-46
2022/06/27 08:36:07;;;;;;;2.35;1.45;;;27.20;50.80;;;;;;4926821;29;20482;-47
2022/06/27 08:38:39;;;;;;;2.47;1.40;;;27.20;50.80;;;;;;4926626;29;20055;-47
2022/06/27 08:41:06;;;;;;;3.33;1.27;;;27.20;50.90;;;;;;4926715;29;20051;-46
2022/06/27 08:43:33;;;;;;;2.83;1.50;;;27.20;50.80;;;;;;4926943;29;20034;-47
2022/06/27 08:46:00;;;;;;;2.28;1.23;;;27.20;50.90;;;;;;4926494;29;20052;-46
2022/06/27 08:48:28;;;;;;;2.60;1.50;;;27.20;50.90;;;;;;4926784;29;20039;-47
2022/06/27 08:50:57;;;;;;;2.95;1.30;;;27.20;50.90;;;;;;4926560;29;20058;-47
2022/06/27 08:53:25;;;;;;;2.60;1.27;;;27.20;50.80;;;;;;4926540;29;20075;-46
2022/06/27 08:55:51;;;;;;;2.10;1.20;;;27.20;50.80;;;;;;4926732;29;20024;-46
2022/06/27 08:58:17;;;;;;;1.92;1.08;;;27.20;50.90;;;;;;4926448;29;20043;-47
2022/06/27 09:00:45;;;;;;;2.47;1.30;;;27.20;50.80;;;;;;4926104;29;20420;-47
2022/06/27 09:03:19;;;;;;;3.50;1.45;;;27.20;50.70;;;;;;4927226;29;20032;-46
2022/06/27 09:06:06;;;;;;;3.15;1.40;;;27.20;50.60;;;;;;4926716;29;20034;-46
2022/06/27 09:08:54;;;;;;;2.40;1.42;;;27.20;50.70;;;;;;4926542;29;20359;-47
2022/06/27 09:11:28;;;;;;;3.13;1.27;;;27.20;50.70;;;;;;4926581;29;20036;-47
2022/06/27 09:13:54;;;;;;;2.65;1.45;;;27.20;50.70;;;;;;4926736;29;20027;-46
2022/06/27 09:16:20;;;;;;;2.55;1.40;;;27.20;50.60;;;;;;4926848;29;20032;-47
2022/06/27 09:18:46;;;;;;;3.22;1.30;;;27.20;50.60;;;;;;4925992;29;20609;-47
2022/06/27 09:21:13;;;;;;;2.50;1.25;;;27.20;50.70;;;;;;4926518;29;20070;-47
2022/06/27 09:23:47;;;;;;;2.50;1.30;;;27.20;50.70;;;;;;4926433;29;20115;-47
2022/06/27 09:26:19;;;;;;;2.25;1.30;;;27.20;50.40;;;;;;4926690;29;20043;-47
2022/06/27 09:29:07;;;;;;;2.20;1.33;;;27.20;50.40;;;;;;4925984;29;20726;-47
2022/06/27 09:31:43;;;;;;;2.63;1.35;;;27.20;50.50;;;;;;4927506;29;20505;-47
2022/06/27 09:34:18;;;;;;;2.42;1.35;;;27.20;50.70;;;;;;4930076;29;20067;-45
2022/06/27 09:36:46;;;;;;;2.13;1.30;;;27.20;50.60;;;;;;4929685;29;20032;-47
2022/06/27 09:39:24;;;;;;;2.38;1.30;;;27.20;50.80;;;;;;4929778;29;20491;-46
2022/06/27 09:41:58;;;;;;;3.10;1.25;;;27.30;50.70;;;;;;4929639;29;20448;-47
2022/06/27 09:44:38;;;;;;;2.20;1.20;;;27.30;50.80;;;;;;4929199;29;20042;-47
2022/06/27 09:47:17;;;;;;;1.80;1.15;;;27.30;50.70;;;;;;4930017;29;20035;-47
2022/06/27 09:49:56;;;;;;;2.05;1.15;;;27.20;50.70;;;;;;4929853;29;20046;-47
2022/06/27 09:52:25;;;;;;;3.17;1.13;;;27.30;50.60;;;;;;4925651;29;20477;-46
2022/06/27 09:54:53;;;;;;;2.45;1.00;;;27.20;50.40;;;;;;4911145;29;20475;-46
2022/06/27 09:57:20;;;;;;;2.47;1.20;;;27.30;50.50;;;;;;4912796;29;20043;-46
2022/06/27 09:59:48;;;;;;;2.28;1.08;;;27.30;50.40;;;;;;4921527;29;20033;-46
2022/06/27 10:02:19;;;;;;;2.00;1.00;;;27.30;50.30;;;;;;4910663;29;20071;-46
2022/06/27 10:04:47;;;;;;;2.90;1.20;;;27.30;50.30;;;;;;4925025;29;20500;-47
2022/06/27 10:07:15;;;;;;;1.77;1.10;;;27.30;50.30;;;;;;4929331;29;20476;-46
2022/06/27 10:09:42;;;;;;;1.27;0.85;;;27.30;50.30;;;;;;4929960;29;20031;-47
2022/06/27 10:12:35;;;;;;;2.05;1.27;;;27.30;50.30;;;;;;4929642;29;20032;-46
2022/06/27 10:15:09;;;;;;;2.30;1.20;;;27.20;50.30;;;;;;4929678;29;20608;-47
2022/06/27 10:17:52;;;;;;;1.50;1.00;;;27.20;50.30;;;;;;4909636;29;20036;-46
2022/06/27 10:20:27;;;;;;;;;;;27.20;50.30;;;;;;4911481;29;20028;-47
2022/06/27 10:23:31;;;;;;;2.25;1.05;;;27.30;50.30;;;;;;4929318;29;19907;-46
2022/06/27 10:25:57;;;;;;;1.80;0.90;;;27.20;50.50;;;;;;4927839;29;20043;-46
2022/06/27 10:28:24;;;;;;;1.77;0.90;;;27.20;50.50;;;;;;4929208;29;20032;-47
2022/06/27 10:30:51;;;;;;;2.38;1.30;;;27.30;50.50;;;;;;4929210;29;20059;-46
2022/06/27 10:33:26;;;;;;;2.28;1.17;;;27.20;50.50;;;;;;4929260;29;20024;-47
2022/06/27 10:35:54;;;;;;;2.42;1.10;;;27.20;50.50;;;;;;4928734;29;20484;-47
2022/06/27 10:38:26;;;;;;;2.00;1.10;;;27.30;50.50;;;;;;4928688;29;20027;-47
2022/06/27 10:40:53;;;;;;;2.83;1.25;;;27.30;50.50;;;;;;4929044;29;20024;-46
2022/06/27 10:43:36;;;;;;;2.03;1.02;;;27.30;50.40;;;;;;4927893;29;20373;-48
2022/06/27 10:46:11;;;;;;;2.45;1.27;;;27.30;50.40;;;;;;4927783;29;20054;-47
2022/06/27 10:48:41;;;;;;;2.10;1.00;;;27.30;50.30;;;;;;4928644;29;20230;-46
2022/06/27 10:51:29;;;;;;;1.73;1.10;;;27.30;50.30;;;;;;4928811;29;20118;-47
2022/06/27 10:54:04;;;;;;;1.50;1.00;;;27.30;50.20;;;;;;4928245;29;20361;-46
2022/06/27 10:56:39;;;;;;;1.85;0.93;;;27.30;50.20;;;;;;4928842;29;20474;-46
2022/06/27 10:59:14;;;;;;;2.10;1.23;;;27.30;50.10;;;;;;4928255;29;20020;-46
2022/06/27 11:01:52;;;;;;;2.00;1.05;;;27.30;50.10;;;;;;4927222;29;20051;-47
2022/06/27 11:04:34;;;;;;;1.45;0.80;;;27.30;50.10;;;;;;4928686;29;20484;-47
2022/06/27 11:07:10;;;;;;;2.45;1.20;;;27.40;50.10;;;;;;4928138;29;20075;-46
2022/06/27 11:09:46;;;;;;;1.58;0.95;;;27.40;50.10;;;;;;4928418;29;20036;-46
2022/06/27 11:12:15;;;;;;;2.63;1.20;;;27.40;50.10;;;;;;4927392;29;20039;-46
2022/06/27 11:14:50;;;;;;;2.30;1.20;;;27.40;50.00;;;;;;4928478;29;20086;-47
2022/06/27 11:17:28;;;;;;;1.63;1.08;;;27.40;50.30;;;;;;4928099;29;20087;-47
2022/06/27 11:20:17;;;;;;;1.98;1.20;;;27.40;50.20;;;;;;4928032;29;20083;-47
2022/06/27 11:22:45;;;;;;;1.63;1.00;;;27.40;50.30;;;;;;4928047;29;20039;-47
2022/06/27 11:25:11;;;;;;;2.00;1.05;;;27.40;50.20;;;;;;4928246;29;20063;-47
2022/06/27 11:31:57;;;;;;;1.50;0.90;;;27.40;50.20;;;;;;4927884;29;20036;-47
2022/06/27 11:33:35;;;;;;;1.75;0.98;;;27.40;50.20;;;;;;4927713;29;20083;-47
2022/06/27 11:36:02;;;;;;;1.75;1.00;;;27.40;50.30;;;;;;4927832;29;20114;-47
2022/06/27 11:38:40;;;;;;;2.33;1.20;;;27.40;50.30;;;;;;4927517;29;20535;-47
2022/06/27 11:41:11;;;;;;;1.58;1.00;;;27.50;50.30;;;;;;4927968;29;20049;-47
2022/06/27 11:43:56;;;;;;;1.83;1.00;;;27.40;50.30;;;;;;4928149;29;20042;-47
2022/06/27 11:46:24;;;;;;;1.55;0.95;;;27.40;50.30;;;;;;4927841;29;20035;-47
2022/06/27 11:48:55;;;;;;;1.90;1.17;;;27.40;50.30;;;;;;4926129;29;20515;-47
2022/06/27 11:51:25;;;;;;;1.77;1.08;;;27.50;50.30;;;;;;4927206;29;20550;-47
2022/06/27 11:53:57;;;;;;;2.05;1.10;;;27.50;50.30;;;;;;4926886;29;20040;-46
2022/06/27 11:56:28;;;;;;;1.90;0.95;;;27.40;50.30;;;;;;4928006;29;20261;-47
2022/06/27 11:58:56;;;;;;;1.35;0.80;;;27.50;50.40;;;;;;4927227;29;20083;-46
2022/06/27 12:01:24;;;;;;;2.03;1.20;;;27.50;50.40;;;;;;4927599;29;20067;-47
2022/06/27 12:04:26;;;;;;;2.25;1.08;;;27.50;50.30;;;;;;4927460;29;20119;-47
2022/06/27 12:06:58;;;;;;;0.85;0.70;;;27.50;50.30;;;;;;4867573;29;20044;-47
2022/06/27 12:09:27;;;;;;;1.85;1.02;;;27.60;50.30;;;;;;4918090;29;20031;-47
2022/06/27 12:12:01;;;;;;;1.98;1.13;;;27.60;50.30;;;;;;4927639;29;20301;-47
2022/06/27 12:14:28;;;;;;;1.45;0.80;;;27.60;50.20;;;;;;4927160;29;20202;-46
2022/06/27 12:16:57;;;;;;;1.73;0.77;;;27.60;50.20;;;;;;4926687;29;20321;-47
2022/06/27 12:19:27;;;;;;;2.25;1.15;;;27.60;50.20;;;;;;4925717;29;20106;-47
2022/06/27 12:21:53;;;;;;;1.80;1.00;;;27.60;50.10;;;;;;4926745;29;20123;-47
2022/06/27 12:24:19;;;;;;;1.90;1.10;;;27.60;50.10;;;;;;4927447;29;20292;-47
2022/06/27 12:26:45;;;;;;;1.70;0.90;;;27.60;50.00;;;;;;4926880;29;20091;-46
2022/06/27 12:29:12;;;;;;;1.75;1.00;;;27.60;50.00;;;;;;4926904;29;20048;-47
2022/06/27 12:31:40;;;;;;;1.77;0.90;;;27.70;50.00;;;;;;4927323;29;20030;-47
2022/06/27 12:34:06;;;;;;;1.33;0.75;;;27.70;49.90;;;;;;4926854;29;20031;-46
2022/06/27 12:36:33;;;;;;;1.85;1.02;;;27.70;49.90;;;;;;4927192;29;20090;-46
2022/06/27 12:39:01;;;;;;;2.10;1.23;;;27.70;49.90;;;;;;4926554;29;20042;-47
2022/06/27 12:41:27;;;;;;;1.20;0.70;;;27.70;49.90;;;;;;4927005;29;20484;-47
2022/06/27 12:43:53;;;;;;;1.40;0.80;;;27.70;49.90;;;;;;4926867;29;20090;-47
2022/06/27 12:46:19;;;;;;;1.65;0.90;;;27.80;49.80;;;;;;4926983;29;20032;-47
2022/06/27 12:48:46;;;;;;;1.38;0.70;;;27.80;49.80;;;;;;4925084;29;20062;-47
2022/06/27 12:51:12;;;;;;;1.70;0.98;;;27.80;49.80;;;;;;4926927;29;20036;-47
2022/06/27 12:53:38;;;;;;;1.25;0.80;;;27.80;49.70;;;;;;4925274;29;20554;-46
2022/06/27 12:56:04;;;;;;;3.28;1.00;;;27.80;49.70;;;;;;4926704;29;20027;-47
2022/06/27 12:58:32;;;;;;;1.80;1.10;;;27.90;49.70;;;;;;4924427;29;20090;-47
2022/06/27 13:00:58;;;;;;;1.08;0.68;;;27.90;49.60;;;;;;4909762;29;20032;-47